createdAt,value
2023-01-25T00:02:23.948Z,81.00
2023-01-25T00:04:50.689Z,81.10
2023-01-25T00:07:17.395Z,81.20
2023-01-25T00:09:44.081Z,81.20
2023-01-25T00:12:10.678Z,81.20
2023-01-25T00:14:37.372Z,81.00
2023-01-25T00:17:04.291Z,81.10
2023-01-25T00:19:30.906Z,81.30
2023-01-25T00:21:58.736Z,81.30
2023-01-25T00:24:25.461Z,81.20
2023-01-25T00:26:52.171Z,81.10
2023-01-25T00:29:18.973Z,81.20
2023-01-25T00:31:57.950Z,81.30
2023-01-25T00:34:24.838Z,81.20
2023-01-25T00:37:29.735Z,81.10
2023-01-25T00:39:56.381Z,81.20
2023-01-25T00:42:23.060Z,81.30
2023-01-25T00:44:49.803Z,81.40
2023-01-25T00:47:16.603Z,81.40
2023-01-25T00:49:43.667Z,81.30
2023-01-25T00:52:10.492Z,81.40
2023-01-25T00:54:37.293Z,81.40
2023-01-25T00:57:04.078Z,81.40
2023-01-25T00:59:30.854Z,81.40
2023-01-25T01:01:57.566Z,81.40
2023-01-25T01:04:24.273Z,81.30
2023-01-25T01:06:51.850Z,81.40
2023-01-25T01:09:18.638Z,81.30
2023-01-25T01:11:45.334Z,81.40
2023-01-25T01:14:13.223Z,81.30
2023-01-25T01:16:39.943Z,81.20
2023-01-25T01:19:06.785Z,81.40
2023-01-25T01:21:33.463Z,81.50
2023-01-25T01:24:00.297Z,81.60
2023-01-25T01:26:27.034Z,81.60
2023-01-25T01:28:53.723Z,81.40
2023-01-25T01:31:22.087Z,81.40
2023-01-25T01:33:52.596Z,81.40
2023-01-25T01:36:21.209Z,81.50
2023-01-25T01:38:48.263Z,81.50
2023-01-25T01:41:15.415Z,81.50
2023-01-25T01:43:42.358Z,81.30
2023-01-25T01:46:22.342Z,81.40
2023-01-25T01:49:01.944Z,81.60
2023-01-25T01:51:46.551Z,81.60
2023-01-25T01:54:20.764Z,81.50
2023-01-25T01:56:53.676Z,81.40
2023-01-25T01:59:20.736Z,81.40
2023-01-25T02:01:47.548Z,81.60
2023-01-25T02:04:14.319Z,81.50
2023-01-25T02:06:53.511Z,81.50
2023-01-25T02:09:22.699Z,81.40
2023-01-25T02:11:49.885Z,81.50
2023-01-25T02:14:16.838Z,81.60
2023-01-25T02:16:43.768Z,81.60
2023-01-25T02:19:13.710Z,81.80
2023-01-25T02:21:42.003Z,81.70
2023-01-25T02:24:17.219Z,81.50
2023-01-25T02:26:43.905Z,81.60
2023-01-25T02:29:10.560Z,81.60
2023-01-25T02:31:37.361Z,81.40
2023-01-25T02:34:04.280Z,81.40
2023-01-25T02:36:34.570Z,81.40
2023-01-25T02:39:03.473Z,81.70
2023-01-25T02:41:40.621Z,81.60
2023-01-25T02:44:11.982Z,81.60
2023-01-25T02:46:39.427Z,81.50
2023-01-25T02:49:06.772Z,81.60
2023-01-25T02:51:35.011Z,81.60
2023-01-25T02:54:02.134Z,81.80
2023-01-25T02:56:28.956Z,81.70
2023-01-25T02:58:55.720Z,81.80
2023-01-25T03:01:22.448Z,82.10
2023-01-25T03:03:49.157Z,82.00
2023-01-25T03:06:15.807Z,81.90
2023-01-25T03:08:43.604Z,81.90
2023-01-25T03:11:10.891Z,81.90
2023-01-25T03:13:37.705Z,81.80
2023-01-25T03:16:06.665Z,81.70
2023-01-25T03:18:34.285Z,81.80
2023-01-25T03:21:07.691Z,81.80
2023-01-25T03:23:34.359Z,81.80
2023-01-25T03:26:06.057Z,81.80
2023-01-25T03:28:32.810Z,82.00
2023-01-25T03:30:59.520Z,82.10
2023-01-25T03:33:26.250Z,82.20
2023-01-25T03:35:54.153Z,81.90
2023-01-25T03:38:21.036Z,82.10
2023-01-25T03:40:47.938Z,82.10
2023-01-25T03:43:14.918Z,81.80
2023-01-25T03:45:41.640Z,81.90
2023-01-25T03:48:08.356Z,81.70
2023-01-25T03:50:35.130Z,81.60
2023-01-25T03:53:01.795Z,81.60
2023-01-25T03:55:28.622Z,81.60
2023-01-25T03:57:55.227Z,81.70
2023-01-25T04:00:22.187Z,81.80
2023-01-25T04:02:48.915Z,81.70
2023-01-25T04:05:15.639Z,81.80
2023-01-25T04:07:42.316Z,81.80
2023-01-25T04:10:09.781Z,81.80
2023-01-25T04:12:36.497Z,81.90
2023-01-25T04:15:03.244Z,81.80
2023-01-25T04:17:29.947Z,81.60
2023-01-25T04:19:56.625Z,81.60
2023-01-25T04:22:23.316Z,81.40
2023-01-25T04:24:50.066Z,81.40
2023-01-25T04:27:16.727Z,81.50
2023-01-25T04:29:43.389Z,81.50
2023-01-25T04:32:10.146Z,81.50
2023-01-25T04:34:36.841Z,81.50
2023-01-25T04:37:03.550Z,81.40
2023-01-25T04:39:30.197Z,81.40
2023-01-25T04:41:57.046Z,81.40
2023-01-25T04:44:23.704Z,81.40
2023-01-25T04:46:50.330Z,81.50
2023-01-25T04:49:17.078Z,81.50
2023-01-25T04:51:44.331Z,81.50
2023-01-25T04:54:11.180Z,81.50
2023-01-25T04:56:37.864Z,81.50
2023-01-25T04:59:04.568Z,81.40
2023-01-25T05:01:31.271Z,81.50
2023-01-25T05:03:58.075Z,81.50
2023-01-25T05:06:24.799Z,81.60
2023-01-25T05:08:51.443Z,81.60
2023-01-25T05:11:18.089Z,81.70
2023-01-25T05:13:44.738Z,81.70
2023-01-25T05:16:11.402Z,81.80
2023-01-25T05:18:47.992Z,81.90
2023-01-25T05:21:15.369Z,82.00
2023-01-25T05:23:42.090Z,82.00
2023-01-25T05:26:08.789Z,82.00
2023-01-25T05:28:35.489Z,82.00
2023-01-25T05:31:05.492Z,81.90
2023-01-25T05:33:33.269Z,82.00
2023-01-25T05:35:59.959Z,81.90
2023-01-25T05:38:26.603Z,81.80
2023-01-25T05:40:53.262Z,81.60
2023-01-25T05:43:20.010Z,81.70
2023-01-25T05:45:52.388Z,81.70
2023-01-25T05:48:19.065Z,81.90
2023-01-25T05:50:45.924Z,82.10
2023-01-25T05:53:12.704Z,82.10
2023-01-25T05:55:39.418Z,82.00
2023-01-25T05:58:06.304Z,82.10
2023-01-25T06:00:33.067Z,82.10
2023-01-25T06:03:02.881Z,82.10
2023-01-25T06:05:29.582Z,81.90
2023-01-25T06:07:56.289Z,81.90
2023-01-25T06:10:22.959Z,81.80
2023-01-25T06:12:49.678Z,81.70
2023-01-25T06:15:16.405Z,81.80
2023-01-25T06:17:43.351Z,81.90
2023-01-25T06:20:11.804Z,82.00
2023-01-25T06:22:38.657Z,82.10
2023-01-25T06:25:05.820Z,82.10
2023-01-25T06:27:32.515Z,82.00
2023-01-25T06:29:59.236Z,81.90
2023-01-25T06:32:26.014Z,81.80
2023-01-25T06:34:52.778Z,81.80
2023-01-25T06:37:19.462Z,82.00
2023-01-25T06:39:46.178Z,82.20
2023-01-25T06:42:12.923Z,82.10
2023-01-25T06:44:39.652Z,81.90
2023-01-25T06:47:08.883Z,82.00
2023-01-25T06:49:35.531Z,82.00
2023-01-25T06:52:04.570Z,82.10
2023-01-25T06:54:45.753Z,82.00
2023-01-25T06:57:14.823Z,82.10
2023-01-25T06:59:41.493Z,81.90
2023-01-25T07:02:14.368Z,82.00
2023-01-25T07:04:41.156Z,81.90
2023-01-25T07:07:08.782Z,82.00
2023-01-25T07:09:36.174Z,82.10
2023-01-25T07:12:02.878Z,82.30
2023-01-25T07:14:29.647Z,82.30
2023-01-25T07:16:56.455Z,82.20
2023-01-25T07:19:23.050Z,82.10
2023-01-25T07:21:49.784Z,82.30
2023-01-25T07:24:17.447Z,81.90
2023-01-25T07:26:44.375Z,81.80
2023-01-25T07:29:15.048Z,81.80
2023-01-25T07:31:41.883Z,81.70
2023-01-25T07:34:09.966Z,81.80
2023-01-25T07:36:37.472Z,82.10
2023-01-25T07:39:04.182Z,82.10
2023-01-25T07:41:30.931Z,82.10
2023-01-25T07:43:57.536Z,82.20
2023-01-25T07:46:24.357Z,82.30
2023-01-25T07:48:52.191Z,82.30
2023-01-25T07:51:20.028Z,82.10
2023-01-25T07:53:46.690Z,82.10
2023-01-25T07:56:13.402Z,82.00
2023-01-25T07:58:40.092Z,82.00
2023-01-25T08:01:08.383Z,82.10
2023-01-25T08:03:35.138Z,82.10
2023-01-25T08:06:01.959Z,82.20
2023-01-25T08:08:28.840Z,82.20
2023-01-25T08:10:55.513Z,82.00
2023-01-25T08:13:23.189Z,82.10
2023-01-25T08:15:54.377Z,82.30
2023-01-25T08:18:21.006Z,82.20
2023-01-25T08:20:48.292Z,82.20
2023-01-25T08:23:14.952Z,82.30
2023-01-25T08:25:41.555Z,82.30
2023-01-25T08:28:08.328Z,82.20
2023-01-25T08:30:35.007Z,82.10
2023-01-25T08:33:01.956Z,82.00
2023-01-25T08:35:28.696Z,82.00
2023-01-25T08:37:55.312Z,82.10
2023-01-25T08:40:21.897Z,82.20
2023-01-25T08:42:48.689Z,82.30
2023-01-25T08:45:15.287Z,82.30
2023-01-25T08:47:41.881Z,82.40
2023-01-25T08:50:09.440Z,82.20
2023-01-25T08:52:36.257Z,82.20
2023-01-25T08:55:02.977Z,82.20
2023-01-25T08:57:30.703Z,82.10
2023-01-25T08:59:57.408Z,82.10
2023-01-25T09:02:24.015Z,82.10
2023-01-25T09:04:50.856Z,82.30
2023-01-25T09:07:17.474Z,82.30
2023-01-25T09:09:44.047Z,82.20
2023-01-25T09:12:10.889Z,82.10
2023-01-25T09:14:37.509Z,82.20
2023-01-25T09:17:04.152Z,82.20
2023-01-25T09:19:30.911Z,82.30
2023-01-25T09:21:57.548Z,82.30
2023-01-25T09:24:24.217Z,82.10
2023-01-25T09:26:59.399Z,82.10
2023-01-25T09:29:26.781Z,82.10
2023-01-25T09:31:53.479Z,82.10
2023-01-25T09:34:21.430Z,82.10
2023-01-25T09:36:48.171Z,82.00
2023-01-25T09:39:14.838Z,81.90
2023-01-25T09:42:06.740Z,81.50
2023-01-25T09:45:00.529Z,81.60
2023-01-25T09:47:44.599Z,81.70
2023-01-25T09:51:08.113Z,81.70
2023-01-25T09:53:35.268Z,81.80
2023-01-25T09:56:12.863Z,81.60
2023-01-25T09:58:43.166Z,81.60
2023-01-25T10:01:17.810Z,81.80
2023-01-25T10:04:06.707Z,81.80
2023-01-25T10:06:48.756Z,81.80
2023-01-25T10:09:42.547Z,81.70
2023-01-25T10:12:19.799Z,81.50
2023-01-25T10:14:46.935Z,81.50
2023-01-25T10:17:24.065Z,81.60
2023-01-25T10:20:28.273Z,81.70
2023-01-25T10:23:05.830Z,81.70
2023-01-25T10:26:14.344Z,81.90
2023-01-25T10:29:13.428Z,81.40
2023-01-25T10:31:48.790Z,81.30
2023-01-25T10:34:19.129Z,81.30
2023-01-25T10:36:56.419Z,81.70
2023-01-25T10:39:23.308Z,81.70
2023-01-25T10:41:53.705Z,81.70
2023-01-25T10:44:20.374Z,81.30
2023-01-25T10:47:23.761Z,81.30
2023-01-25T10:49:57.646Z,81.30
2023-01-25T10:52:28.683Z,81.40
2023-01-25T10:55:14.188Z,81.40
2023-01-25T10:57:59.040Z,81.30
2023-01-25T11:00:32.202Z,81.40
2023-01-25T11:02:58.936Z,81.40
2023-01-25T11:05:31.484Z,81.10
2023-01-25T11:07:58.668Z,81.10
2023-01-25T11:10:32.203Z,81.00
2023-01-25T11:13:17.464Z,81.10
2023-01-25T11:15:54.055Z,80.90
2023-01-25T11:18:22.028Z,80.90
2023-01-25T11:20:57.866Z,81.20
2023-01-25T11:23:25.944Z,81.20
2023-01-25T11:25:52.845Z,81.00
2023-01-25T11:28:23.777Z,81.00
2023-01-25T11:30:53.465Z,80.90
2023-01-25T11:33:21.323Z,80.80
2023-01-25T11:36:03.889Z,80.70
2023-01-25T11:38:30.531Z,80.90
2023-01-25T11:41:05.532Z,80.70
2023-01-25T11:43:50.402Z,80.70
2023-01-25T11:46:27.897Z,80.60
2023-01-25T11:49:23.995Z,80.60
2023-01-25T11:51:58.005Z,80.50
2023-01-25T11:54:51.365Z,80.40
2023-01-25T11:57:55.494Z,80.50
2023-01-25T12:00:45.717Z,80.40
2023-01-25T12:03:38.521Z,80.50
2023-01-25T12:06:08.207Z,80.40
2023-01-25T12:09:13.170Z,80.50
2023-01-25T12:11:42.592Z,80.50
2023-01-25T12:14:40.052Z,80.50
2023-01-25T12:17:23.564Z,80.60
2023-01-25T12:20:07.305Z,80.60
2023-01-25T12:23:01.612Z,80.40
2023-01-25T12:26:00.377Z,80.40
2023-01-25T12:28:36.052Z,80.30
2023-01-25T12:31:13.089Z,80.40
2023-01-25T12:33:47.692Z,80.50
2023-01-25T12:36:18.830Z,80.40
2023-01-25T12:38:45.398Z,80.50
2023-01-25T12:41:36.227Z,80.50
2023-01-25T12:44:23.137Z,80.40
2023-01-25T12:46:54.551Z,80.50
2023-01-25T12:49:28.470Z,80.40
2023-01-25T12:51:59.328Z,80.50
2023-01-25T12:54:33.578Z,80.50
2023-01-25T12:57:06.335Z,80.60
2023-01-25T12:59:54.297Z,80.40
2023-01-25T13:02:51.467Z,80.30
2023-01-25T13:05:44.840Z,80.40
2023-01-25T13:08:31.394Z,80.60
2023-01-25T13:11:39.554Z,80.50
2023-01-25T13:14:18.288Z,80.60
2023-01-25T13:17:09.382Z,80.60
2023-01-25T13:19:36.889Z,80.70
2023-01-25T13:22:03.761Z,80.80
2023-01-25T13:24:31.593Z,80.60
2023-01-25T13:26:59.878Z,80.70
2023-01-25T13:29:32.482Z,80.50
2023-01-25T13:31:59.860Z,80.60
2023-01-25T13:34:35.492Z,80.40
2023-01-25T13:37:03.352Z,80.30
2023-01-25T13:39:29.967Z,80.50
2023-01-25T13:42:02.720Z,80.60
2023-01-25T13:44:32.158Z,80.60
2023-01-25T13:47:03.684Z,80.70
2023-01-25T13:49:53.856Z,80.80
2023-01-25T13:52:22.737Z,80.60
2023-01-25T13:54:49.854Z,80.60
2023-01-25T13:57:28.147Z,80.70
2023-01-25T14:00:10.153Z,80.70
2023-01-25T14:02:37.430Z,80.90
2023-01-25T14:05:07.887Z,80.90
2023-01-25T14:07:35.556Z,80.90
2023-01-25T14:10:03.365Z,81.00
2023-01-25T14:12:40.486Z,80.80
2023-01-25T14:15:28.205Z,80.80
2023-01-25T14:18:11.225Z,80.80
2023-01-25T14:20:37.856Z,80.80
2023-01-25T14:23:04.517Z,81.00
2023-01-25T14:25:32.821Z,81.00
2023-01-25T14:28:00.253Z,81.20
2023-01-25T14:30:34.092Z,81.30
2023-01-25T14:33:02.609Z,81.20
2023-01-25T14:35:43.557Z,81.30
2023-01-25T14:38:26.412Z,81.20
2023-01-25T14:40:58.565Z,81.20
2023-01-25T14:43:25.306Z,81.20
2023-01-25T14:45:52.020Z,81.30
2023-01-25T14:48:40.092Z,81.40
2023-01-25T14:51:27.647Z,81.40
2023-01-25T14:54:05.007Z,81.50
2023-01-25T14:56:46.356Z,81.60
2023-01-25T14:59:26.158Z,81.60
2023-01-25T15:01:53.171Z,81.50
2023-01-25T15:04:19.982Z,81.60
2023-01-25T15:06:52.400Z,81.80
2023-01-25T15:09:39.701Z,81.60
2023-01-25T15:12:28.200Z,81.60
2023-01-25T15:14:56.110Z,81.70
2023-01-25T15:17:42.425Z,81.70
2023-01-25T15:20:31.012Z,81.60
2023-01-25T15:23:02.704Z,81.50
2023-01-25T15:25:29.419Z,81.70
2023-01-25T15:27:56.024Z,81.70
2023-01-25T15:30:22.967Z,81.70
2023-01-25T15:32:49.696Z,81.80
2023-01-25T15:35:18.052Z,81.80
2023-01-25T15:37:46.004Z,81.80
2023-01-25T15:40:14.485Z,82.00
2023-01-25T15:42:41.216Z,82.00
2023-01-25T15:45:08.529Z,81.90
2023-01-25T15:47:36.161Z,81.90
2023-01-25T15:50:04.299Z,82.00
2023-01-25T15:52:31.004Z,82.10
2023-01-25T15:55:01.895Z,82.10
2023-01-25T15:57:31.147Z,82.10
2023-01-25T15:59:57.972Z,82.00
2023-01-25T16:02:25.552Z,81.90
2023-01-25T16:04:52.987Z,81.70
2023-01-25T16:07:28.355Z,81.70
2023-01-25T16:09:55.022Z,81.80
2023-01-25T16:12:22.281Z,81.90
2023-01-25T16:14:49.044Z,82.00
2023-01-25T16:17:20.093Z,81.80
2023-01-25T16:19:46.776Z,81.90
2023-01-25T16:22:17.103Z,81.80
2023-01-25T16:24:44.385Z,82.00
2023-01-25T16:27:15.755Z,81.90
2023-01-25T16:29:42.876Z,81.90
2023-01-25T16:32:09.535Z,81.90
2023-01-25T16:34:36.492Z,82.00
2023-01-25T16:37:03.235Z,82.00
2023-01-25T16:39:30.057Z,81.90
2023-01-25T16:41:56.763Z,82.00
2023-01-25T16:44:23.535Z,82.00
2023-01-25T16:46:50.425Z,81.90
2023-01-25T16:49:24.671Z,82.00
2023-01-25T16:51:51.298Z,81.90
2023-01-25T16:54:18.634Z,82.00
2023-01-25T16:56:45.501Z,81.80
2023-01-25T16:59:12.189Z,81.90
2023-01-25T17:01:39.156Z,82.00
2023-01-25T17:04:06.000Z,82.00
2023-01-25T17:06:34.425Z,82.00
2023-01-25T17:09:12.585Z,81.90
2023-01-25T17:11:47.432Z,82.10
2023-01-25T17:14:15.678Z,82.10
2023-01-25T17:16:42.321Z,82.30
2023-01-25T17:19:12.341Z,82.10
2023-01-25T17:21:39.036Z,82.10
2023-01-25T17:24:06.118Z,82.20
2023-01-25T17:26:32.954Z,82.40
2023-01-25T17:29:00.703Z,82.40
2023-01-25T17:31:29.233Z,82.40
2023-01-25T17:33:56.190Z,82.40
2023-01-25T17:36:22.944Z,82.40
2023-01-25T17:38:49.700Z,82.60
2023-01-25T17:41:16.974Z,82.50
2023-01-25T17:43:43.673Z,82.60
2023-01-25T17:46:24.448Z,82.60
2023-01-25T17:48:54.531Z,82.70
2023-01-25T17:51:23.988Z,82.60
2023-01-25T17:53:51.547Z,82.60
2023-01-25T17:56:20.518Z,82.60
2023-01-25T17:58:47.377Z,82.60
2023-01-25T18:01:15.816Z,82.60
2023-01-25T18:03:43.137Z,82.70
2023-01-25T18:06:13.352Z,82.70
2023-01-25T18:08:41.351Z,82.70
2023-01-25T18:11:08.974Z,82.80
2023-01-25T18:13:39.149Z,82.90
2023-01-25T18:16:06.265Z,82.90
2023-01-25T18:18:33.116Z,83.00
2023-01-25T18:21:07.247Z,82.90
2023-01-25T18:23:34.536Z,82.80
2023-01-25T18:26:01.254Z,82.90
2023-01-25T18:28:28.054Z,82.90
2023-01-25T18:31:01.762Z,82.90
2023-01-25T18:33:28.539Z,83.00
2023-01-25T18:35:55.397Z,82.90
2023-01-25T18:38:22.998Z,82.90
2023-01-25T18:40:51.805Z,83.00
2023-01-25T18:43:19.047Z,83.20
2023-01-25T18:45:46.955Z,83.20
2023-01-25T18:48:27.463Z,83.10
2023-01-25T18:50:56.172Z,83.00
2023-01-25T18:53:26.098Z,83.10
2023-01-25T18:56:03.978Z,83.10
2023-01-25T18:58:32.408Z,83.10
2023-01-25T19:01:34.233Z,83.10
2023-01-25T19:04:01.135Z,83.30
2023-01-25T19:06:29.530Z,83.30
2023-01-25T19:08:56.450Z,83.30
2023-01-25T19:11:23.796Z,83.30
2023-01-25T19:13:51.072Z,83.20
2023-01-25T19:16:22.170Z,83.30
2023-01-25T19:18:52.119Z,83.30
2023-01-25T19:21:26.674Z,83.30
2023-01-25T19:23:56.326Z,83.40
2023-01-25T19:26:23.921Z,83.40
2023-01-25T19:28:51.518Z,83.30
2023-01-25T19:31:24.610Z,83.40
2023-01-25T19:34:02.242Z,83.50
2023-01-25T19:36:34.113Z,83.40
2023-01-25T19:39:07.068Z,83.50
2023-01-25T19:41:34.003Z,83.50
2023-01-25T19:44:02.037Z,83.60
2023-01-25T19:46:30.830Z,83.80
2023-01-25T19:48:58.259Z,83.70
2023-01-25T19:51:27.071Z,84.00
2023-01-25T19:54:01.503Z,84.00
2023-01-25T19:56:31.045Z,84.20
2023-01-25T19:59:00.216Z,84.30
2023-01-25T20:01:29.447Z,84.30
2023-01-25T20:03:56.856Z,84.60
2023-01-25T20:06:24.315Z,84.60
2023-01-25T20:08:51.817Z,84.80
2023-01-25T20:11:24.096Z,85.10
2023-01-25T20:13:52.739Z,84.80
2023-01-25T20:19:41.387Z,85.00
2023-01-25T20:22:08.016Z,85.40
2023-01-25T20:24:34.636Z,85.20
2023-01-25T20:27:03.398Z,85.40
2023-01-25T20:29:31.075Z,85.40
2023-01-25T20:31:57.812Z,85.40
2023-01-25T20:34:24.440Z,85.40
2023-01-25T20:36:51.215Z,85.60
2023-01-25T20:39:20.177Z,85.70
2023-01-25T20:41:47.066Z,85.50
2023-01-25T20:44:14.995Z,85.70
2023-01-25T20:46:42.001Z,86.20
2023-01-25T20:49:13.963Z,86.10
2023-01-25T20:51:40.832Z,86.00
2023-01-25T20:54:07.574Z,86.10
2023-01-25T20:56:34.228Z,86.40
2023-01-25T20:59:01.030Z,86.30
2023-01-25T21:01:29.561Z,86.40
2023-01-25T21:03:56.994Z,86.50
2023-01-25T21:06:24.242Z,86.70
2023-01-25T21:08:52.459Z,86.60
2023-01-25T21:11:19.820Z,86.70
2023-01-25T21:13:47.558Z,86.80
2023-01-25T21:16:15.649Z,86.60
2023-01-25T21:18:46.640Z,86.80
2023-01-25T21:21:20.975Z,86.80
2023-01-25T21:23:48.567Z,87.10
2023-01-25T21:26:19.852Z,87.00
2023-01-25T21:28:46.778Z,87.00
2023-01-25T21:31:14.674Z,87.00
2023-01-25T21:33:41.415Z,87.10
2023-01-25T21:36:08.550Z,87.20
2023-01-25T21:38:35.628Z,87.10
2023-01-25T21:41:03.436Z,87.20
2023-01-25T21:43:32.350Z,87.20
2023-01-25T21:45:59.229Z,87.30
2023-01-25T21:48:25.974Z,87.30
2023-01-25T21:50:52.677Z,87.20
2023-01-25T21:53:19.735Z,87.40
2023-01-25T21:55:46.393Z,87.50
2023-01-25T21:58:13.446Z,87.50
2023-01-25T22:00:40.240Z,87.40
2023-01-25T22:03:06.970Z,87.50
2023-01-25T22:05:33.653Z,87.80
2023-01-25T22:08:00.324Z,87.60
2023-01-25T22:10:27.073Z,87.60
2023-01-25T22:12:53.727Z,87.70
2023-01-25T22:15:20.362Z,87.80
2023-01-25T22:17:46.979Z,88.00
2023-01-25T22:20:13.677Z,87.90
2023-01-25T22:22:40.342Z,88.10
2023-01-25T22:25:07.242Z,88.00
2023-01-25T22:27:55.315Z,88.00
2023-01-25T22:30:22.782Z,88.00
2023-01-25T22:32:49.396Z,88.10
2023-01-25T22:35:16.351Z,88.20
2023-01-25T22:37:43.039Z,88.20
2023-01-25T22:40:10.657Z,88.10
2023-01-25T22:42:37.584Z,88.10
2023-01-25T22:45:04.864Z,88.20
2023-01-25T22:47:32.543Z,88.20
2023-01-25T22:49:59.235Z,88.20
2023-01-25T22:52:25.828Z,88.20
2023-01-25T22:54:52.473Z,88.30
2023-01-25T22:57:19.157Z,88.40
2023-01-25T22:59:45.773Z,88.40
2023-01-25T23:02:12.437Z,88.40
2023-01-25T23:04:39.082Z,88.40
2023-01-25T23:07:05.739Z,88.50
2023-01-25T23:09:32.382Z,88.50
2023-01-25T23:11:59.110Z,88.50
2023-01-25T23:14:25.731Z,88.70
2023-01-25T23:16:52.381Z,88.60
2023-01-25T23:19:19.008Z,88.60
2023-01-25T23:21:45.688Z,88.70
2023-01-25T23:24:12.353Z,88.80
2023-01-25T23:26:39.092Z,88.70
2023-01-25T23:29:09.336Z,88.70
2023-01-25T23:31:36.452Z,88.70
2023-01-25T23:34:04.449Z,88.80
2023-01-25T23:36:32.674Z,88.80
2023-01-25T23:38:59.496Z,88.90
2023-01-25T23:41:27.243Z,88.90
2023-01-25T23:43:57.091Z,88.90
2023-01-25T23:46:23.985Z,88.90
2023-01-25T23:48:50.983Z,88.90
2023-01-25T23:51:17.685Z,89.00
2023-01-25T23:53:44.521Z,89.00
2023-01-25T23:56:15.973Z,88.90
2023-01-25T23:58:42.750Z,89.00
